Terminal Aerodrome Forecast
Issued by NWS Cleveland, OH

Home | Current Version | Previous Version | Text Only | Print | Product List | Glossary On
Versions: 1 2 3 4 5 6 7 8 9 10 11 12 13 14 15 16 17 18 19 20 21 22 23 24 25 26 27 28 29 30 31
000
FTUS41 KCLE 231139
TAFCLE
TAF
KCLE 231139Z 2312/2418 19010KT 4SM -RA BKN025 OVC080
      TEMPO 2312/2313 1SM RA OVC015
     FM231400 20012KT 6SM -SHRA VCTS OVC015CB
      TEMPO 2315/2319 24012G20KT 1SM TSRA OVC005CB
     FM232000 24010G20KT 5SM -SHRA OVC018
     FM232200 29005KT P6SM OVC025
     FM240500 25006KT P6SM SCT050=

USA.gov is the U.S. government's official web portal to all federal, state and local government web resources and services.